Terminal Aerodrome Forecast
Issued by NWS

Current Version | Previous Version | Text Only | Print | Product List | Glossary On
Versions: 1 2 3 4 5 6 7 8 9 10 11 12 13 14 15 16 17
000
FTUS42 KJAX 220500
TAFCRG
TAF
KCRG 220520Z 2206/2306 VRB03KT 2SM SHRA BR OVC002
      TEMPO 2207/2211 1SM RA BR
     FM221400 17004KT 5SM -RA BR OVC004
     FM221700 16007KT 6SM SHRA BR OVC008
     FM222200 16004KT 4SM BR VCSH OVC004=

USA.gov is the U.S. government's official web portal to all federal, state and local government web resources and services.